sensor_id;sensor_type;location;lat;lon;timestamp;P1;durP1;ratioP1;P2;durP2;ratioP2
44704;SDS011;30431;48.520;9.046;2023-04-06T00:02:08;12.43;;;8.02;;
44704;SDS011;30431;48.520;9.046;2023-04-06T00:04:35;10.23;;;7.82;;
44704;SDS011;30431;48.520;9.046;2023-04-06T00:07:02;12.55;;;8.73;;
44704;SDS011;30431;48.520;9.046;2023-04-06T00:09:29;17.35;;;9.60;;
44704;SDS011;30431;48.520;9.046;2023-04-06T00:11:56;13.65;;;9.02;;
44704;SDS011;30431;48.520;9.046;2023-04-06T00:14:24;13.68;;;9.20;;
44704;SDS011;30431;48.520;9.046;2023-04-06T00:16:51;12.85;;;8.93;;
44704;SDS011;30431;48.520;9.046;2023-04-06T00:19:21;12.68;;;8.55;;
44704;SDS011;30431;48.520;9.046;2023-04-06T00:21:48;18.05;;;9.82;;
44704;SDS011;30431;48.520;9.046;2023-04-06T00:24:15;14.05;;;8.55;;
44704;SDS011;30431;48.520;9.046;2023-04-06T00:26:42;12.30;;;8.77;;
44704;SDS011;30431;48.520;9.046;2023-04-06T00:29:09;13.35;;;8.38;;
44704;SDS011;30431;48.520;9.046;2023-04-06T00:34:03;15.73;;;8.13;;
44704;SDS011;30431;48.520;9.046;2023-04-06T00:36:32;13.90;;;8.05;;
44704;SDS011;30431;48.520;9.046;2023-04-06T00:38:59;13.73;;;9.52;;
44704;SDS011;30431;48.520;9.046;2023-04-06T00:41:29;13.57;;;9.38;;
44704;SDS011;30431;48.520;9.046;2023-04-06T00:43:56;15.02;;;9.18;;
44704;SDS011;30431;48.520;9.046;2023-04-06T00:48:53;15.38;;;8.80;;
44704;SDS011;30431;48.520;9.046;2023-04-06T00:51:20;11.38;;;7.55;;
44704;SDS011;30431;48.520;9.046;2023-04-06T00:53:49;14.57;;;8.27;;
44704;SDS011;30431;48.520;9.046;2023-04-06T00:58:51;15.65;;;8.70;;
44704;SDS011;30431;48.520;9.046;2023-04-06T01:01:23;11.88;;;8.27;;
44704;SDS011;30431;48.520;9.046;2023-04-06T01:03:52;12.98;;;8.60;;
44704;SDS011;30431;48.520;9.046;2023-04-06T01:06:22;13.50;;;8.32;;
44704;SDS011;30431;48.520;9.046;2023-04-06T01:08:58;14.27;;;9.07;;
44704;SDS011;30431;48.520;9.046;2023-04-06T01:11:27;15.13;;;8.95;;
44704;SDS011;30431;48.520;9.046;2023-04-06T01:13:55;14.52;;;8.98;;
44704;SDS011;30431;48.520;9.046;2023-04-06T01:16:32;14.13;;;9.45;;
44704;SDS011;30431;48.520;9.046;2023-04-06T01:19:14;15.30;;;10.13;;
44704;SDS011;30431;48.520;9.046;2023-04-06T01:21:45;18.73;;;9.88;;
44704;SDS011;30431;48.520;9.046;2023-04-06T01:24:35;17.05;;;9.93;;
44704;SDS011;30431;48.520;9.046;2023-04-06T01:27:12;14.35;;;9.20;;
44704;SDS011;30431;48.520;9.046;2023-04-06T01:29:57;16.47;;;9.97;;
44704;SDS011;30431;48.520;9.046;2023-04-06T01:32:45;17.10;;;9.52;;
44704;SDS011;30431;48.520;9.046;2023-04-06T01:35:15;13.02;;;8.93;;
44704;SDS011;30431;48.520;9.046;2023-04-06T01:40:25;14.43;;;9.35;;
44704;SDS011;30431;48.520;9.046;2023-04-06T01:42:52;15.50;;;10.40;;
44704;SDS011;30431;48.520;9.046;2023-04-06T01:45:28;13.57;;;9.55;;
44704;SDS011;30431;48.520;9.046;2023-04-06T01:50:36;14.60;;;9.02;;
44704;SDS011;30431;48.520;9.046;2023-04-06T01:53:02;12.35;;;9.43;;
44704;SDS011;30431;48.520;9.046;2023-04-06T01:55:31;13.07;;;9.00;;
44704;SDS011;30431;48.520;9.046;2023-04-06T01:58:16;15.55;;;10.23;;
44704;SDS011;30431;48.520;9.046;2023-04-06T02:00:43;15.65;;;9.70;;
44704;SDS011;30431;48.520;9.046;2023-04-06T02:05:41;15.32;;;9.88;;
44704;SDS011;30431;48.520;9.046;2023-04-06T02:08:23;17.08;;;11.15;;
44704;SDS011;30431;48.520;9.046;2023-04-06T02:10:50;17.77;;;11.30;;
44704;SDS011;30431;48.520;9.046;2023-04-06T02:13:28;19.58;;;11.73;;
44704;SDS011;30431;48.520;9.046;2023-04-06T02:15:55;15.07;;;10.73;;
44704;SDS011;30431;48.520;9.046;2023-04-06T02:18:27;16.95;;;11.73;;
44704;SDS011;30431;48.520;9.046;2023-04-06T02:20:54;20.63;;;14.02;;
44704;SDS011;30431;48.520;9.046;2023-04-06T02:23:23;18.70;;;13.07;;
44704;SDS011;30431;48.520;9.046;2023-04-06T02:25:50;19.48;;;11.95;;
44704;SDS011;30431;48.520;9.046;2023-04-06T02:28:17;18.33;;;12.35;;
44704;SDS011;30431;48.520;9.046;2023-04-06T02:30:45;16.02;;;10.68;;
44704;SDS011;30431;48.520;9.046;2023-04-06T02:33:15;15.45;;;11.35;;
44704;SDS011;30431;48.520;9.046;2023-04-06T02:35:45;19.58;;;12.18;;
44704;SDS011;30431;48.520;9.046;2023-04-06T02:38:14;19.13;;;12.15;;
44704;SDS011;30431;48.520;9.046;2023-04-06T02:40:41;20.70;;;11.75;;
44704;SDS011;30431;48.520;9.046;2023-04-06T02:43:35;16.67;;;11.52;;
44704;SDS011;30431;48.520;9.046;2023-04-06T02:46:08;19.05;;;13.13;;
44704;SDS011;30431;48.520;9.046;2023-04-06T02:48:40;24.23;;;12.95;;
44704;SDS011;30431;48.520;9.046;2023-04-06T02:51:13;19.70;;;13.13;;
44704;SDS011;30431;48.520;9.046;2023-04-06T02:53:43;16.15;;;11.52;;
44704;SDS011;30431;48.520;9.046;2023-04-06T02:56:12;20.33;;;12.57;;
44704;SDS011;30431;48.520;9.046;2023-04-06T02:58:47;18.63;;;12.77;;
44704;SDS011;30431;48.520;9.046;2023-04-06T03:01:14;21.83;;;13.35;;
44704;SDS011;30431;48.520;9.046;2023-04-06T03:03:42;19.23;;;12.30;;
44704;SDS011;30431;48.520;9.046;2023-04-06T03:06:17;19.75;;;13.52;;
44704;SDS011;30431;48.520;9.046;2023-04-06T03:11:18;20.15;;;12.20;;
44704;SDS011;30431;48.520;9.046;2023-04-06T03:13:52;17.92;;;12.13;;
44704;SDS011;30431;48.520;9.046;2023-04-06T03:16:34;17.90;;;12.95;;
44704;SDS011;30431;48.520;9.046;2023-04-06T03:19:02;18.58;;;12.63;;
44704;SDS011;30431;48.520;9.046;2023-04-06T03:21:34;19.45;;;12.30;;
44704;SDS011;30431;48.520;9.046;2023-04-06T03:24:04;19.63;;;12.38;;
44704;SDS011;30431;48.520;9.046;2023-04-06T03:27:14;16.90;;;11.65;;
44704;SDS011;30431;48.520;9.046;2023-04-06T03:29:43;20.30;;;12.68;;
44704;SDS011;30431;48.520;9.046;2023-04-06T03:32:22;17.58;;;12.15;;
44704;SDS011;30431;48.520;9.046;2023-04-06T03:37:17;19.90;;;11.55;;
44704;SDS011;30431;48.520;9.046;2023-04-06T03:39:50;19.48;;;11.65;;
44704;SDS011;30431;48.520;9.046;2023-04-06T03:42:23;17.90;;;11.43;;
44704;SDS011;30431;48.520;9.046;2023-04-06T03:44:58;20.40;;;13.00;;
44704;SDS011;30431;48.520;9.046;2023-04-06T03:47:29;18.40;;;11.88;;
44704;SDS011;30431;48.520;9.046;2023-04-06T03:50:01;17.00;;;11.90;;
44704;SDS011;30431;48.520;9.046;2023-04-06T03:52:32;18.42;;;13.20;;
44704;SDS011;30431;48.520;9.046;2023-04-06T03:55:03;17.92;;;12.85;;
44704;SDS011;30431;48.520;9.046;2023-04-06T03:57:31;17.83;;;12.13;;
44704;SDS011;30431;48.520;9.046;2023-04-06T03:59:58;21.27;;;13.30;;
44704;SDS011;30431;48.520;9.046;2023-04-06T04:02:37;17.13;;;12.88;;
44704;SDS011;30431;48.520;9.046;2023-04-06T04:05:05;22.20;;;13.23;;
44704;SDS011;30431;48.520;9.046;2023-04-06T04:07:36;17.67;;;13.10;;
44704;SDS011;30431;48.520;9.046;2023-04-06T04:10:08;19.27;;;12.93;;
44704;SDS011;30431;48.520;9.046;2023-04-06T04:12:49;16.98;;;12.18;;
44704;SDS011;30431;48.520;9.046;2023-04-06T04:15:19;23.30;;;12.65;;
44704;SDS011;30431;48.520;9.046;2023-04-06T04:17:47;18.17;;;12.48;;
44704;SDS011;30431;48.520;9.046;2023-04-06T04:20:17;18.30;;;12.35;;
44704;SDS011;30431;48.520;9.046;2023-04-06T04:22:49;19.60;;;12.93;;
44704;SDS011;30431;48.520;9.046;2023-04-06T04:25:21;20.15;;;12.73;;
44704;SDS011;30431;48.520;9.046;2023-04-06T04:27:54;21.02;;;13.55;;
44704;SDS011;30431;48.520;9.046;2023-04-06T04:30:23;17.27;;;12.35;;
44704;SDS011;30431;48.520;9.046;2023-04-06T04:32:51;17.95;;;12.20;;
44704;SDS011;30431;48.520;9.046;2023-04-06T04:35:21;19.80;;;12.70;;
44704;SDS011;30431;48.520;9.046;2023-04-06T04:37:50;22.75;;;13.45;;
44704;SDS011;30431;48.520;9.046;2023-04-06T04:40:17;16.70;;;12.63;;
44704;SDS011;30431;48.520;9.046;2023-04-06T04:43:02;19.63;;;12.10;;
44704;SDS011;30431;48.520;9.046;2023-04-06T04:45:33;18.75;;;11.68;;
44704;SDS011;30431;48.520;9.046;2023-04-06T04:48:13;20.50;;;12.20;;
44704;SDS011;30431;48.520;9.046;2023-04-06T04:51:07;19.55;;;13.18;;
44704;SDS011;30431;48.520;9.046;2023-04-06T04:53:52;18.58;;;12.20;;
44704;SDS011;30431;48.520;9.046;2023-04-06T04:56:23;19.70;;;12.73;;
44704;SDS011;30431;48.520;9.046;2023-04-06T04:59:02;19.27;;;12.07;;
44704;SDS011;30431;48.520;9.046;2023-04-06T05:01:33;19.42;;;13.63;;
44704;SDS011;30431;48.520;9.046;2023-04-06T05:04:25;21.13;;;13.35;;
44704;SDS011;30431;48.520;9.046;2023-04-06T05:07:06;22.73;;;13.48;;
44704;SDS011;30431;48.520;9.046;2023-04-06T05:13:37;18.40;;;12.50;;
44704;SDS011;30431;48.520;9.046;2023-04-06T05:16:12;18.23;;;13.00;;
44704;SDS011;30431;48.520;9.046;2023-04-06T05:18:43;18.65;;;12.75;;
44704;SDS011;30431;48.520;9.046;2023-04-06T05:21:10;25.67;;;13.43;;
44704;SDS011;30431;48.520;9.046;2023-04-06T05:24:04;29.10;;;13.40;;
44704;SDS011;30431;48.520;9.046;2023-04-06T05:26:32;21.13;;;13.80;;
44704;SDS011;30431;48.520;9.046;2023-04-06T05:29:05;17.25;;;12.82;;
44704;SDS011;30431;48.520;9.046;2023-04-06T05:31:37;17.63;;;11.77;;
44704;SDS011;30431;48.520;9.046;2023-04-06T05:34:12;38.58;;;19.48;;
44704;SDS011;30431;48.520;9.046;2023-04-06T05:36:40;21.48;;;12.95;;
44704;SDS011;30431;48.520;9.046;2023-04-06T05:39:19;18.60;;;12.65;;
44704;SDS011;30431;48.520;9.046;2023-04-06T05:41:50;19.25;;;12.65;;
44704;SDS011;30431;48.520;9.046;2023-04-06T05:44:36;22.20;;;12.63;;
44704;SDS011;30431;48.520;9.046;2023-04-06T05:47:20;17.67;;;11.65;;
44704;SDS011;30431;48.520;9.046;2023-04-06T05:50:07;16.73;;;11.98;;
44704;SDS011;30431;48.520;9.046;2023-04-06T05:52:37;21.33;;;11.30;;
44704;SDS011;30431;48.520;9.046;2023-04-06T05:55:12;17.02;;;11.80;;
44704;SDS011;30431;48.520;9.046;2023-04-06T05:57:44;22.42;;;12.30;;
44704;SDS011;30431;48.520;9.046;2023-04-06T06:00:14;18.38;;;12.52;;
44704;SDS011;30431;48.520;9.046;2023-04-06T06:03:21;22.90;;;12.65;;
44704;SDS011;30431;48.520;9.046;2023-04-06T06:06:02;16.52;;;12.02;;
44704;SDS011;30431;48.520;9.046;2023-04-06T06:08:56;17.17;;;11.70;;
44704;SDS011;30431;48.520;9.046;2023-04-06T06:11:44;21.52;;;11.65;;
44704;SDS011;30431;48.520;9.046;2023-04-06T06:14:14;17.25;;;10.77;;
44704;SDS011;30431;48.520;9.046;2023-04-06T06:16:51;17.40;;;11.10;;
44704;SDS011;30431;48.520;9.046;2023-04-06T06:19:29;19.17;;;11.10;;
44704;SDS011;30431;48.520;9.046;2023-04-06T06:22:00;39.38;;;19.48;;
44704;SDS011;30431;48.520;9.046;2023-04-06T06:24:29;20.33;;;12.45;;
44704;SDS011;30431;48.520;9.046;2023-04-06T06:27:00;20.48;;;11.25;;
44704;SDS011;30431;48.520;9.046;2023-04-06T06:29:33;17.35;;;10.70;;
44704;SDS011;30431;48.520;9.046;2023-04-06T06:32:04;16.63;;;10.50;;
44704;SDS011;30431;48.520;9.046;2023-04-06T06:34:37;16.42;;;11.13;;
44704;SDS011;30431;48.520;9.046;2023-04-06T06:37:23;17.85;;;9.85;;
44704;SDS011;30431;48.520;9.046;2023-04-06T06:39:59;17.60;;;10.02;;
44704;SDS011;30431;48.520;9.046;2023-04-06T06:42:30;18.13;;;10.25;;
44704;SDS011;30431;48.520;9.046;2023-04-06T06:45:07;16.88;;;10.68;;
44704;SDS011;30431;48.520;9.046;2023-04-06T06:47:36;17.52;;;10.10;;
44704;SDS011;30431;48.520;9.046;2023-04-06T06:50:10;18.20;;;11.75;;
44704;SDS011;30431;48.520;9.046;2023-04-06T06:55:04;13.68;;;9.77;;
44704;SDS011;30431;48.520;9.046;2023-04-06T06:57:50;14.07;;;9.75;;
44704;SDS011;30431;48.520;9.046;2023-04-06T07:01:13;14.70;;;10.27;;
44704;SDS011;30431;48.520;9.046;2023-04-06T07:04:26;16.30;;;9.60;;
44704;SDS011;30431;48.520;9.046;2023-04-06T07:06:55;20.10;;;9.70;;
44704;SDS011;30431;48.520;9.046;2023-04-06T07:09:35;17.10;;;9.43;;
44704;SDS011;30431;48.520;9.046;2023-04-06T07:14:29;14.68;;;10.00;;
44704;SDS011;30431;48.520;9.046;2023-04-06T07:16:58;16.75;;;9.48;;
44704;SDS011;30431;48.520;9.046;2023-04-06T07:19:35;15.20;;;10.63;;
44704;SDS011;30431;48.520;9.046;2023-04-06T07:22:02;16.15;;;10.07;;
44704;SDS011;30431;48.520;9.046;2023-04-06T07:24:32;15.43;;;10.02;;
44704;SDS011;30431;48.520;9.046;2023-04-06T07:29:29;18.33;;;9.57;;
44704;SDS011;30431;48.520;9.046;2023-04-06T07:31:59;16.70;;;9.90;;
44704;SDS011;30431;48.520;9.046;2023-04-06T07:36:53;15.02;;;9.55;;
44704;SDS011;30431;48.520;9.046;2023-04-06T07:39:24;17.90;;;10.98;;
44704;SDS011;30431;48.520;9.046;2023-04-06T07:41:54;14.05;;;9.32;;
44704;SDS011;30431;48.520;9.046;2023-04-06T07:44:24;19.33;;;9.55;;
44704;SDS011;30431;48.520;9.046;2023-04-06T07:50:52;13.18;;;9.05;;
44704;SDS011;30431;48.520;9.046;2023-04-06T07:53:26;13.02;;;9.00;;
44704;SDS011;30431;48.520;9.046;2023-04-06T07:55:56;13.63;;;9.07;;
44704;SDS011;30431;48.520;9.046;2023-04-06T07:58:27;13.40;;;9.13;;
44704;SDS011;30431;48.520;9.046;2023-04-06T08:00:59;12.50;;;8.88;;
44704;SDS011;30431;48.520;9.046;2023-04-06T08:03:27;13.48;;;8.85;;
44704;SDS011;30431;48.520;9.046;2023-04-06T08:08:22;15.10;;;9.48;;
44704;SDS011;30431;48.520;9.046;2023-04-06T08:10:52;14.32;;;9.60;;
44704;SDS011;30431;48.520;9.046;2023-04-06T08:15:48;13.55;;;9.43;;
44704;SDS011;30431;48.520;9.046;2023-04-06T08:18:15;16.45;;;9.27;;
44704;SDS011;30431;48.520;9.046;2023-04-06T08:20:43;13.65;;;8.60;;
44704;SDS011;30431;48.520;9.046;2023-04-06T08:23:11;13.50;;;8.50;;
44704;SDS011;30431;48.520;9.046;2023-04-06T08:25:38;11.48;;;8.85;;
44704;SDS011;30431;48.520;9.046;2023-04-06T08:28:06;14.93;;;8.77;;
44704;SDS011;30431;48.520;9.046;2023-04-06T08:30:36;10.50;;;7.95;;
44704;SDS011;30431;48.520;9.046;2023-04-06T08:33:03;19.17;;;8.13;;
44704;SDS011;30431;48.520;9.046;2023-04-06T08:40:35;14.25;;;8.23;;
44704;SDS011;30431;48.520;9.046;2023-04-06T08:43:03;12.13;;;8.15;;
44704;SDS011;30431;48.520;9.046;2023-04-06T08:45:35;14.60;;;8.70;;
44704;SDS011;30431;48.520;9.046;2023-04-06T08:50:35;14.25;;;8.30;;
44704;SDS011;30431;48.520;9.046;2023-04-06T08:53:04;12.07;;;8.50;;
44704;SDS011;30431;48.520;9.046;2023-04-06T08:55:38;12.43;;;8.80;;
44704;SDS011;30431;48.520;9.046;2023-04-06T08:58:10;10.13;;;7.70;;
44704;SDS011;30431;48.520;9.046;2023-04-06T09:00:38;13.95;;;8.27;;
44704;SDS011;30431;48.520;9.046;2023-04-06T09:03:11;13.77;;;7.45;;
44704;SDS011;30431;48.520;9.046;2023-04-06T09:05:39;10.63;;;7.63;;
44704;SDS011;30431;48.520;9.046;2023-04-06T09:08:09;9.13;;;6.85;;
44704;SDS011;30431;48.520;9.046;2023-04-06T09:10:42;9.60;;;6.90;;
44704;SDS011;30431;48.520;9.046;2023-04-06T09:13:10;13.20;;;7.68;;
44704;SDS011;30431;48.520;9.046;2023-04-06T09:18:09;12.70;;;7.80;;
44704;SDS011;30431;48.520;9.046;2023-04-06T09:20:37;11.90;;;7.53;;
44704;SDS011;30431;48.520;9.046;2023-04-06T09:23:04;11.32;;;7.68;;
44704;SDS011;30431;48.520;9.046;2023-04-06T09:25:31;11.82;;;8.07;;
44704;SDS011;30431;48.520;9.046;2023-04-06T09:27:59;10.95;;;8.20;;
44704;SDS011;30431;48.520;9.046;2023-04-06T09:30:33;12.20;;;8.05;;
44704;SDS011;30431;48.520;9.046;2023-04-06T09:33:02;12.43;;;7.72;;
44704;SDS011;30431;48.520;9.046;2023-04-06T09:35:33;13.38;;;8.02;;
44704;SDS011;30431;48.520;9.046;2023-04-06T09:38:10;13.00;;;8.18;;
44704;SDS011;30431;48.520;9.046;2023-04-06T09:40:46;13.95;;;8.00;;
44704;SDS011;30431;48.520;9.046;2023-04-06T09:43:26;12.15;;;8.27;;
44704;SDS011;30431;48.520;9.046;2023-04-06T09:45:56;11.07;;;8.07;;
44704;SDS011;30431;48.520;9.046;2023-04-06T09:48:24;16.20;;;8.15;;
44704;SDS011;30431;48.520;9.046;2023-04-06T09:50:58;10.25;;;8.27;;
44704;SDS011;30431;48.520;9.046;2023-04-06T09:53:29;10.95;;;8.02;;
44704;SDS011;30431;48.520;9.046;2023-04-06T09:55:57;17.27;;;8.00;;
44704;SDS011;30431;48.520;9.046;2023-04-06T09:58:33;12.15;;;7.97;;
44704;SDS011;30431;48.520;9.046;2023-04-06T10:01:04;13.32;;;8.05;;
44704;SDS011;30431;48.520;9.046;2023-04-06T10:03:45;12.23;;;7.05;;
44704;SDS011;30431;48.520;9.046;2023-04-06T10:06:39;12.73;;;7.78;;
44704;SDS011;30431;48.520;9.046;2023-04-06T10:09:11;12.57;;;7.15;;
44704;SDS011;30431;48.520;9.046;2023-04-06T10:11:42;10.48;;;6.45;;
44704;SDS011;30431;48.520;9.046;2023-04-06T10:14:09;7.22;;;4.75;;
44704;SDS011;30431;48.520;9.046;2023-04-06T10:16:39;7.00;;;4.78;;
44704;SDS011;30431;48.520;9.046;2023-04-06T10:19:18;8.43;;;5.78;;
44704;SDS011;30431;48.520;9.046;2023-04-06T10:21:51;8.35;;;5.75;;
44704;SDS011;30431;48.520;9.046;2023-04-06T10:24:21;9.00;;;5.43;;
44704;SDS011;30431;48.520;9.046;2023-04-06T10:26:58;8.48;;;5.55;;
44704;SDS011;30431;48.520;9.046;2023-04-06T10:29:41;8.13;;;5.38;;
44704;SDS011;30431;48.520;9.046;2023-04-06T10:32:14;7.47;;;5.68;;
44704;SDS011;30431;48.520;9.046;2023-04-06T10:34:41;9.18;;;5.72;;
44704;SDS011;30431;48.520;9.046;2023-04-06T10:37:15;6.90;;;5.45;;
44704;SDS011;30431;48.520;9.046;2023-04-06T10:39:46;11.00;;;5.53;;
44704;SDS011;30431;48.520;9.046;2023-04-06T10:42:36;8.80;;;6.40;;
44704;SDS011;30431;48.520;9.046;2023-04-06T10:45:05;10.38;;;5.68;;
44704;SDS011;30431;48.520;9.046;2023-04-06T10:47:40;7.43;;;5.85;;
44704;SDS011;30431;48.520;9.046;2023-04-06T10:50:07;10.07;;;6.30;;
44704;SDS011;30431;48.520;9.046;2023-04-06T10:52:35;9.48;;;6.95;;
44704;SDS011;30431;48.520;9.046;2023-04-06T10:55:02;9.77;;;6.93;;
44704;SDS011;30431;48.520;9.046;2023-04-06T10:57:31;15.63;;;9.57;;
44704;SDS011;30431;48.520;9.046;2023-04-06T11:00:01;8.75;;;6.38;;
44704;SDS011;30431;48.520;9.046;2023-04-06T11:02:35;10.07;;;6.05;;
44704;SDS011;30431;48.520;9.046;2023-04-06T11:05:04;8.18;;;5.43;;
44704;SDS011;30431;48.520;9.046;2023-04-06T11:07:32;6.78;;;5.10;;
44704;SDS011;30431;48.520;9.046;2023-04-06T11:12:42;6.22;;;4.43;;
44704;SDS011;30431;48.520;9.046;2023-04-06T11:15:12;6.15;;;4.20;;
44704;SDS011;30431;48.520;9.046;2023-04-06T11:20:10;6.88;;;4.55;;
44704;SDS011;30431;48.520;9.046;2023-04-06T11:22:51;5.30;;;3.97;;
44704;SDS011;30431;48.520;9.046;2023-04-06T11:25:18;6.90;;;3.67;;
44704;SDS011;30431;48.520;9.046;2023-04-06T11:27:46;7.07;;;4.20;;
44704;SDS011;30431;48.520;9.046;2023-04-06T11:30:14;6.63;;;4.40;;
44704;SDS011;30431;48.520;9.046;2023-04-06T11:35:22;6.35;;;3.85;;
44704;SDS011;30431;48.520;9.046;2023-04-06T11:37:52;6.25;;;4.20;;
44704;SDS011;30431;48.520;9.046;2023-04-06T11:40:22;7.68;;;4.63;;
44704;SDS011;30431;48.520;9.046;2023-04-06T11:42:53;7.38;;;5.03;;
44704;SDS011;30431;48.520;9.046;2023-04-06T11:45:24;6.35;;;4.40;;
